sensor_id;sensor_type;location;lat;lon;timestamp;pressure;altitude;pressure_sealevel;temperature;humidity
56330;BME280;42236;48.058;10.632;2023-04-19T00:01:54;95102.31;;;7.39;100.00
56330;BME280;42236;48.058;10.632;2023-04-19T00:04:40;95096.38;;;7.42;100.00
56330;BME280;42236;48.058;10.632;2023-04-19T00:07:26;95090.38;;;7.45;100.00
56330;BME280;42236;48.058;10.632;2023-04-19T00:10:11;95093.97;;;7.40;100.00
56330;BME280;42236;48.058;10.632;2023-04-19T00:13:01;95093.50;;;7.38;100.00
56330;BME280;42236;48.058;10.632;2023-04-19T00:15:46;95097.94;;;7.43;100.00
56330;BME280;42236;48.058;10.632;2023-04-19T00:18:32;95091.94;;;7.46;100.00
56330;BME280;42236;48.058;10.632;2023-04-19T00:21:18;95087.84;;;7.48;100.00
56330;BME280;42236;48.058;10.632;2023-04-19T00:24:04;95087.97;;;7.43;100.00
56330;BME280;42236;48.058;10.632;2023-04-19T00:26:49;95093.69;;;7.42;100.00
56330;BME280;42236;48.058;10.632;2023-04-19T00:29:35;95095.38;;;7.38;100.00
56330;BME280;42236;48.058;10.632;2023-04-19T00:32:21;95084.66;;;7.38;100.00
56330;BME280;42236;48.058;10.632;2023-04-19T00:35:07;95083.69;;;7.34;100.00
56330;BME280;42236;48.058;10.632;2023-04-19T00:37:52;95082.59;;;7.35;100.00
56330;BME280;42236;48.058;10.632;2023-04-19T00:40:38;95080.00;;;7.30;100.00
56330;BME280;42236;48.058;10.632;2023-04-19T00:43:24;95084.59;;;7.29;100.00
56330;BME280;42236;48.058;10.632;2023-04-19T00:46:10;95078.50;;;7.37;100.00
56330;BME280;42236;48.058;10.632;2023-04-19T00:48:56;95082.09;;;7.33;100.00
56330;BME280;42236;48.058;10.632;2023-04-19T00:51:41;95081.63;;;7.31;100.00
56330;BME280;42236;48.058;10.632;2023-04-19T00:54:28;95072.44;;;7.23;100.00
56330;BME280;42236;48.058;10.632;2023-04-19T00:57:14;95075.41;;;7.21;100.00
56330;BME280;42236;48.058;10.632;2023-04-19T01:00:01;95071.75;;;7.17;100.00
56330;BME280;42236;48.058;10.632;2023-04-19T01:02:47;95072.06;;;7.16;100.00
56330;BME280;42236;48.058;10.632;2023-04-19T01:05:32;95072.84;;;7.16;100.00
56330;BME280;42236;48.058;10.632;2023-04-19T01:08:18;95070.47;;;7.15;100.00
56330;BME280;42236;48.058;10.632;2023-04-19T01:11:04;95071.09;;;7.12;100.00
56330;BME280;42236;48.058;10.632;2023-04-19T01:13:50;95070.78;;;7.13;100.00
56330;BME280;42236;48.058;10.632;2023-04-19T01:16:36;95065.56;;;7.08;100.00
56330;BME280;42236;48.058;10.632;2023-04-19T01:19:23;95063.47;;;7.05;100.00
56330;BME280;42236;48.058;10.632;2023-04-19T01:22:09;95061.94;;;7.13;100.00
56330;BME280;42236;48.058;10.632;2023-04-19T01:24:55;95056.41;;;7.09;100.00
56330;BME280;42236;48.058;10.632;2023-04-19T01:27:41;95054.50;;;7.10;100.00
56330;BME280;42236;48.058;10.632;2023-04-19T01:30:27;95049.81;;;7.15;100.00
56330;BME280;42236;48.058;10.632;2023-04-19T01:33:12;95049.81;;;7.15;100.00
56330;BME280;42236;48.058;10.632;2023-04-19T01:35:58;95049.50;;;7.17;100.00
56330;BME280;42236;48.058;10.632;2023-04-19T01:38:44;95059.31;;;7.21;100.00
56330;BME280;42236;48.058;10.632;2023-04-19T01:41:32;95050.41;;;7.12;100.00
56330;BME280;42236;48.058;10.632;2023-04-19T01:44:17;95045.50;;;7.05;100.00
56330;BME280;42236;48.058;10.632;2023-04-19T01:47:03;95044.41;;;7.07;100.00
56330;BME280;42236;48.058;10.632;2023-04-19T01:49:49;95043.78;;;7.10;100.00
56330;BME280;42236;48.058;10.632;2023-04-19T01:52:35;95037.34;;;7.11;100.00
56330;BME280;42236;48.058;10.632;2023-04-19T01:55:20;95042.38;;;7.12;100.00
56330;BME280;42236;48.058;10.632;2023-04-19T01:58:06;95035.28;;;7.16;100.00
56330;BME280;42236;48.058;10.632;2023-04-19T02:00:52;95041.44;;;7.17;100.00
56330;BME280;42236;48.058;10.632;2023-04-19T02:03:39;95037.00;;;7.12;100.00
56330;BME280;42236;48.058;10.632;2023-04-19T02:06:24;95039.34;;;7.05;100.00
56330;BME280;42236;48.058;10.632;2023-04-19T02:09:11;95033.47;;;7.03;100.00
56330;BME280;42236;48.058;10.632;2023-04-19T02:11:56;95035.09;;;7.04;100.00
56330;BME280;42236;48.058;10.632;2023-04-19T02:14:42;95026.06;;;7.00;100.00
56330;BME280;42236;48.058;10.632;2023-04-19T02:17:28;95028.13;;;7.03;100.00
56330;BME280;42236;48.058;10.632;2023-04-19T02:20:14;95022.88;;;6.98;100.00
56330;BME280;42236;48.058;10.632;2023-04-19T02:22:59;95028.56;;;6.96;100.00
56330;BME280;42236;48.058;10.632;2023-04-19T02:25:45;95013.63;;;7.04;100.00
56330;BME280;42236;48.058;10.632;2023-04-19T02:28:31;95016.66;;;7.11;100.00
56330;BME280;42236;48.058;10.632;2023-04-19T02:31:17;95016.66;;;7.11;100.00
56330;BME280;42236;48.058;10.632;2023-04-19T02:34:02;95016.31;;;7.04;100.00
56330;BME280;42236;48.058;10.632;2023-04-19T02:36:48;95016.31;;;7.04;100.00
56330;BME280;42236;48.058;10.632;2023-04-19T02:39:34;95009.97;;;7.00;100.00
56330;BME280;42236;48.058;10.632;2023-04-19T02:42:19;95007.13;;;7.05;100.00
56330;BME280;42236;48.058;10.632;2023-04-19T02:45:05;95005.44;;;7.09;100.00
56330;BME280;42236;48.058;10.632;2023-04-19T02:47:51;95007.97;;;7.14;100.00
56330;BME280;42236;48.058;10.632;2023-04-19T02:50:37;94998.53;;;7.17;100.00
56330;BME280;42236;48.058;10.632;2023-04-19T02:53:23;95003.25;;;7.11;100.00
56330;BME280;42236;48.058;10.632;2023-04-19T02:56:08;94995.81;;;7.08;100.00
56330;BME280;42236;48.058;10.632;2023-04-19T02:58:54;94999.78;;;7.11;100.00
56330;BME280;42236;48.058;10.632;2023-04-19T03:01:41;94999.44;;;7.12;100.00
56330;BME280;42236;48.058;10.632;2023-04-19T03:04:27;94991.88;;;7.05;100.00
56330;BME280;42236;48.058;10.632;2023-04-19T03:07:13;94987.88;;;7.03;100.00
56330;BME280;42236;48.058;10.632;2023-04-19T03:09:58;94990.09;;;7.01;100.00
56330;BME280;42236;48.058;10.632;2023-04-19T03:12:44;94990.69;;;6.98;100.00
56330;BME280;42236;48.058;10.632;2023-04-19T03:15:30;94979.53;;;7.04;100.00
56330;BME280;42236;48.058;10.632;2023-04-19T03:18:15;94979.97;;;6.98;100.00
56330;BME280;42236;48.058;10.632;2023-04-19T03:21:03;94983.28;;;6.95;100.00
56330;BME280;42236;48.058;10.632;2023-04-19T03:23:48;94984.38;;;6.94;100.00
56330;BME280;42236;48.058;10.632;2023-04-19T03:26:34;94985.97;;;6.95;100.00
56330;BME280;42236;48.058;10.632;2023-04-19T03:29:20;94978.41;;;6.97;100.00
56330;BME280;42236;48.058;10.632;2023-04-19T03:32:06;94978.88;;;6.99;100.00
56330;BME280;42236;48.058;10.632;2023-04-19T03:34:52;94977.91;;;6.95;100.00
56330;BME280;42236;48.058;10.632;2023-04-19T03:37:37;94977.41;;;6.93;100.00
56330;BME280;42236;48.058;10.632;2023-04-19T03:40:23;94972.53;;;6.95;100.00
56330;BME280;42236;48.058;10.632;2023-04-19T03:43:09;94975.09;;;7.00;100.00
56330;BME280;42236;48.058;10.632;2023-04-19T03:45:54;94962.44;;;6.92;100.00
56330;BME280;42236;48.058;10.632;2023-04-19T03:48:40;94971.13;;;6.89;100.00
56330;BME280;42236;48.058;10.632;2023-04-19T03:51:26;94968.53;;;6.83;100.00
56330;BME280;42236;48.058;10.632;2023-04-19T03:54:12;94968.53;;;6.83;100.00
56330;BME280;42236;48.058;10.632;2023-04-19T03:56:57;94961.19;;;6.89;100.00
56330;BME280;42236;48.058;10.632;2023-04-19T03:59:43;94966.06;;;6.87;100.00
56330;BME280;42236;48.058;10.632;2023-04-19T04:02:29;94960.38;;;6.89;100.00
56330;BME280;42236;48.058;10.632;2023-04-19T04:05:15;94960.38;;;6.89;100.00
56330;BME280;42236;48.058;10.632;2023-04-19T04:08:01;94963.06;;;6.89;100.00
56330;BME280;42236;48.058;10.632;2023-04-19T04:10:47;94957.53;;;6.85;100.00
56330;BME280;42236;48.058;10.632;2023-04-19T04:13:32;94967.47;;;6.84;100.00
56330;BME280;42236;48.058;10.632;2023-04-19T04:16:18;94964.78;;;6.84;100.00
56330;BME280;42236;48.058;10.632;2023-04-19T04:19:04;94955.03;;;6.89;100.00
56330;BME280;42236;48.058;10.632;2023-04-19T04:21:49;94958.97;;;6.91;100.00
56330;BME280;42236;48.058;10.632;2023-04-19T04:24:39;94955.47;;;6.91;100.00
56330;BME280;42236;48.058;10.632;2023-04-19T04:27:25;94966.84;;;6.88;100.00
56330;BME280;42236;48.058;10.632;2023-04-19T04:30:11;94964.94;;;6.88;100.00
56330;BME280;42236;48.058;10.632;2023-04-19T04:32:57;94965.75;;;6.89;100.00
56330;BME280;42236;48.058;10.632;2023-04-19T04:35:43;94968.25;;;6.85;100.00
56330;BME280;42236;48.058;10.632;2023-04-19T04:38:28;94969.38;;;6.93;100.00
56330;BME280;42236;48.058;10.632;2023-04-19T04:41:15;94968.88;;;6.91;100.00
56330;BME280;42236;48.058;10.632;2023-04-19T04:44:01;94974.75;;;6.93;100.00
56330;BME280;42236;48.058;10.632;2023-04-19T04:46:49;94965.75;;;6.89;100.00
56330;BME280;42236;48.058;10.632;2023-04-19T04:49:34;94967.94;;;6.87;100.00
56330;BME280;42236;48.058;10.632;2023-04-19T04:52:20;94979.88;;;6.80;100.00
56330;BME280;42236;48.058;10.632;2023-04-19T04:55:06;94975.16;;;6.77;100.00
56330;BME280;42236;48.058;10.632;2023-04-19T04:57:52;94970.56;;;6.78;100.00
56330;BME280;42236;48.058;10.632;2023-04-19T05:00:38;94967.59;;;6.79;100.00
56330;BME280;42236;48.058;10.632;2023-04-19T05:03:24;94962.81;;;6.76;100.00
56330;BME280;42236;48.058;10.632;2023-04-19T05:06:11;94960.03;;;6.81;100.00
56330;BME280;42236;48.058;10.632;2023-04-19T05:08:56;94960.50;;;6.83;100.00
56330;BME280;42236;48.058;10.632;2023-04-19T05:11:42;94947.41;;;6.82;100.00
56330;BME280;42236;48.058;10.632;2023-04-19T05:14:28;94955.03;;;6.89;100.00
56330;BME280;42236;48.058;10.632;2023-04-19T05:17:13;94958.03;;;6.96;100.00
56330;BME280;42236;48.058;10.632;2023-04-19T05:19:59;94960.09;;;6.99;100.00
56330;BME280;42236;48.058;10.632;2023-04-19T05:22:45;94958.72;;;7.10;100.00
56330;BME280;42236;48.058;10.632;2023-04-19T05:25:31;94953.69;;;7.09;100.00
56330;BME280;42236;48.058;10.632;2023-04-19T05:28:16;94960.81;;;7.13;100.00
56330;BME280;42236;48.058;10.632;2023-04-19T05:31:02;94959.19;;;7.12;100.00
56330;BME280;42236;48.058;10.632;2023-04-19T05:33:48;94962.66;;;7.13;100.00
56330;BME280;42236;48.058;10.632;2023-04-19T05:36:33;94950.06;;;7.13;100.00
56330;BME280;42236;48.058;10.632;2023-04-19T05:39:19;94958.56;;;7.07;100.00
56330;BME280;42236;48.058;10.632;2023-04-19T05:42:05;94947.97;;;7.10;100.00
56330;BME280;42236;48.058;10.632;2023-04-19T05:44:50;94951.28;;;7.07;100.00
56330;BME280;42236;48.058;10.632;2023-04-19T05:47:36;94956.66;;;7.07;100.00
56330;BME280;42236;48.058;10.632;2023-04-19T05:50:21;94953.50;;;7.05;100.00
56330;BME280;42236;48.058;10.632;2023-04-19T05:53:07;94955.69;;;7.03;100.00
56330;BME280;42236;48.058;10.632;2023-04-19T05:55:53;94962.03;;;7.07;100.00
56330;BME280;42236;48.058;10.632;2023-04-19T05:58:38;94961.41;;;7.10;100.00
56330;BME280;42236;48.058;10.632;2023-04-19T06:01:24;94963.00;;;7.11;100.00
56330;BME280;42236;48.058;10.632;2023-04-19T06:04:10;94953.97;;;7.07;100.00
56330;BME280;42236;48.058;10.632;2023-04-19T06:06:56;94950.66;;;7.01;100.00
56330;BME280;42236;48.058;10.632;2023-04-19T06:09:41;94968.19;;;7.08;100.00
56330;BME280;42236;48.058;10.632;2023-04-19T06:12:27;94960.31;;;7.11;100.00
56330;BME280;42236;48.058;10.632;2023-04-19T06:15:13;94957.50;;;7.16;100.00
56330;BME280;42236;48.058;10.632;2023-04-19T06:17:58;94965.69;;;7.20;100.00
56330;BME280;42236;48.058;10.632;2023-04-19T06:20:47;94963.00;;;7.11;100.00
56330;BME280;42236;48.058;10.632;2023-04-19T06:23:32;94961.28;;;7.15;100.00
56330;BME280;42236;48.058;10.632;2023-04-19T06:26:18;94963.16;;;7.15;100.00
56330;BME280;42236;48.058;10.632;2023-04-19T06:29:04;94971.19;;;7.06;100.00
56330;BME280;42236;48.058;10.632;2023-04-19T06:31:50;94969.00;;;7.08;100.00
56330;BME280;42236;48.058;10.632;2023-04-19T06:34:36;94969.34;;;7.15;100.00
56330;BME280;42236;48.058;10.632;2023-04-19T06:37:22;94960.50;;;7.23;100.00
56330;BME280;42236;48.058;10.632;2023-04-19T06:40:08;94967.50;;;7.33;100.00
56330;BME280;42236;48.058;10.632;2023-04-19T06:42:54;94969.69;;;7.31;100.00
56330;BME280;42236;48.058;10.632;2023-04-19T06:45:40;94965.59;;;7.34;100.00
56330;BME280;42236;48.058;10.632;2023-04-19T06:48:25;94960.41;;;7.37;100.00
56330;BME280;42236;48.058;10.632;2023-04-19T06:51:12;94970.66;;;7.35;100.00
56330;BME280;42236;48.058;10.632;2023-04-19T06:53:57;94966.72;;;7.33;100.00
56330;BME280;42236;48.058;10.632;2023-04-19T06:56:45;94973.00;;;7.28;100.00
56330;BME280;42236;48.058;10.632;2023-04-19T06:59:31;94965.72;;;7.29;100.00
56330;BME280;42236;48.058;10.632;2023-04-19T07:02:17;94962.28;;;7.28;100.00
56330;BME280;42236;48.058;10.632;2023-04-19T07:05:03;94966.22;;;7.31;100.00
56330;BME280;42236;48.058;10.632;2023-04-19T07:07:49;94973.50;;;7.39;100.00
56330;BME280;42236;48.058;10.632;2023-04-19T07:10:35;94967.19;;;7.35;100.00
56330;BME280;42236;48.058;10.632;2023-04-19T07:13:20;94962.13;;;7.33;100.00
56330;BME280;42236;48.058;10.632;2023-04-19T07:16:06;94969.06;;;7.25;100.00
56330;BME280;42236;48.058;10.632;2023-04-19T07:18:52;94963.81;;;7.20;100.00
56330;BME280;42236;48.058;10.632;2023-04-19T07:21:38;94967.00;;;7.22;100.00
56330;BME280;42236;48.058;10.632;2023-04-19T07:24:24;94958.75;;;7.19;100.00
56330;BME280;42236;48.058;10.632;2023-04-19T07:27:12;94963.81;;;7.20;100.00
56330;BME280;42236;48.058;10.632;2023-04-19T07:29:58;94967.28;;;7.21;100.00
56330;BME280;42236;48.058;10.632;2023-04-19T07:32:44;94970.47;;;7.23;100.00
56330;BME280;42236;48.058;10.632;2023-04-19T07:35:30;94965.53;;;7.16;100.00
56330;BME280;42236;48.058;10.632;2023-04-19T07:38:16;94955.78;;;7.20;100.00
56330;BME280;42236;48.058;10.632;2023-04-19T07:41:02;94960.50;;;7.23;100.00
56330;BME280;42236;48.058;10.632;2023-04-19T07:43:49;94964.63;;;7.30;100.00
56330;BME280;42236;48.058;10.632;2023-04-19T07:46:35;94963.06;;;7.29;100.00
56330;BME280;42236;48.058;10.632;2023-04-19T07:49:21;94965.25;;;7.26;100.00
56330;BME280;42236;48.058;10.632;2023-04-19T07:52:06;94963.19;;;7.23;100.00
56330;BME280;42236;48.058;10.632;2023-04-19T07:54:52;94953.72;;;7.26;100.00
56330;BME280;42236;48.058;10.632;2023-04-19T07:57:38;94957.53;;;7.25;100.00
56330;BME280;42236;48.058;10.632;2023-04-19T08:00:23;94954.22;;;7.28;100.00
56330;BME280;42236;48.058;10.632;2023-04-19T08:03:09;94953.28;;;7.33;100.00
56330;BME280;42236;48.058;10.632;2023-04-19T08:05:55;94958.34;;;7.43;100.00
56330;BME280;42236;48.058;10.632;2023-04-19T08:08:41;94954.59;;;7.53;99.97
56330;BME280;42236;48.058;10.632;2023-04-19T08:11:26;94954.63;;;7.61;99.63
56330;BME280;42236;48.058;10.632;2023-04-19T08:14:12;94950.97;;;7.57;99.29
56330;BME280;42236;48.058;10.632;2023-04-19T08:16:57;94959.03;;;7.57;99.63
56330;BME280;42236;48.058;10.632;2023-04-19T08:19:43;94952.88;;;7.57;99.31
56330;BME280;42236;48.058;10.632;2023-04-19T08:22:29;94944.63;;;7.53;99.52
56330;BME280;42236;48.058;10.632;2023-04-19T08:25:14;94949.25;;;7.61;99.27
56330;BME280;42236;48.058;10.632;2023-04-19T08:28:01;94941.19;;;7.70;99.09
56330;BME280;42236;48.058;10.632;2023-04-19T08:30:46;94946.09;;;7.77;98.79
56330;BME280;42236;48.058;10.632;2023-04-19T08:33:33;94944.22;;;7.86;98.53
56330;BME280;42236;48.058;10.632;2023-04-19T08:36:19;94948.31;;;7.92;98.22
56330;BME280;42236;48.058;10.632;2023-04-19T08:39:05;94948.31;;;7.92;97.82
56330;BME280;42236;48.058;10.632;2023-04-19T08:41:51;94945.00;;;7.86;97.77
56330;BME280;42236;48.058;10.632;2023-04-19T08:44:38;94953.53;;;7.88;97.81
56330;BME280;42236;48.058;10.632;2023-04-19T08:47:24;94948.31;;;7.92;97.70
56330;BME280;42236;48.058;10.632;2023-04-19T08:50:10;94935.69;;;8.01;97.60
56330;BME280;42236;48.058;10.632;2023-04-19T08:52:59;94942.16;;;8.09;97.32
56330;BME280;42236;48.058;10.632;2023-04-19T08:55:46;94931.72;;;8.25;96.64
56330;BME280;42236;48.058;10.632;2023-04-19T08:58:32;94929.66;;;8.39;95.89
56330;BME280;42236;48.058;10.632;2023-04-19T09:01:17;94932.34;;;8.48;95.53
56330;BME280;42236;48.058;10.632;2023-04-19T09:04:04;94928.84;;;8.56;95.33
56330;BME280;42236;48.058;10.632;2023-04-19T09:06:50;94919.66;;;8.66;95.04
56330;BME280;42236;48.058;10.632;2023-04-19T09:09:36;94919.47;;;8.71;94.60
56330;BME280;42236;48.058;10.632;2023-04-19T09:12:22;94920.59;;;8.70;94.58
56330;BME280;42236;48.058;10.632;2023-04-19T09:15:08;94920.91;;;8.77;94.62
56330;BME280;42236;48.058;10.632;2023-04-19T09:18:03;94913.75;;;8.81;93.85
56330;BME280;42236;48.058;10.632;2023-04-19T09:20:51;94911.69;;;8.87;93.53
56330;BME280;42236;48.058;10.632;2023-04-19T09:23:45;94911.53;;;8.83;93.47
56330;BME280;42236;48.058;10.632;2023-04-19T09:26:32;94908.47;;;8.93;93.63
56330;BME280;42236;48.058;10.632;2023-04-19T09:29:18;94910.06;;;8.94;92.77
56330;BME280;42236;48.058;10.632;2023-04-19T09:32:03;94900.88;;;8.95;92.96
56330;BME280;42236;48.058;10.632;2023-04-19T09:34:51;94901.34;;;8.97;92.79
56330;BME280;42236;48.058;10.632;2023-04-19T09:37:37;94899.13;;;9.00;92.49
56330;BME280;42236;48.058;10.632;2023-04-19T09:40:26;94898.09;;;9.13;92.46
56330;BME280;42236;48.058;10.632;2023-04-19T09:43:12;94898.53;;;9.24;92.51
56330;BME280;42236;48.058;10.632;2023-04-19T09:45:57;94890.53;;;9.36;91.67
56330;BME280;42236;48.058;10.632;2023-04-19T09:48:43;94888.44;;;9.42;90.91
56330;BME280;42236;48.058;10.632;2023-04-19T09:51:39;94887.94;;;9.48;89.80
56330;BME280;42236;48.058;10.632;2023-04-19T09:54:25;94881.41;;;9.49;90.96
56330;BME280;42236;48.058;10.632;2023-04-19T09:57:15;94881.25;;;9.54;90.69
56330;BME280;42236;48.058;10.632;2023-04-19T10:00:01;94875.31;;;9.61;90.04
56330;BME280;42236;48.058;10.632;2023-04-19T10:02:51;94870.97;;;9.69;90.51
56330;BME280;42236;48.058;10.632;2023-04-19T10:05:41;94873.16;;;9.75;90.41
56330;BME280;42236;48.058;10.632;2023-04-19T10:08:27;94866.00;;;9.79;89.26
56330;BME280;42236;48.058;10.632;2023-04-19T10:11:13;94869.41;;;9.89;89.05
56330;BME280;42236;48.058;10.632;2023-04-19T10:14:00;94866.25;;;9.87;89.09
56330;BME280;42236;48.058;10.632;2023-04-19T10:16:48;94866.78;;;10.01;88.64
56330;BME280;42236;48.058;10.632;2023-04-19T10:19:36;94864.53;;;10.03;87.78
56330;BME280;42236;48.058;10.632;2023-04-19T10:22:22;94863.63;;;9.99;88.21
56330;BME280;42236;48.058;10.632;2023-04-19T10:25:10;94869.13;;;10.02;87.94
56330;BME280;42236;48.058;10.632;2023-04-19T10:27:57;94868.47;;;10.06;87.68
56330;BME280;42236;48.058;10.632;2023-04-19T10:31:02;94865.91;;;10.09;85.95
56330;BME280;42236;48.058;10.632;2023-04-19T10:33:49;94867.28;;;10.15;87.00
56330;BME280;42236;48.058;10.632;2023-04-19T10:36:38;94859.44;;;10.22;87.76
56330;BME280;42236;48.058;10.632;2023-04-19T10:39:40;94856.34;;;10.33;85.50
56330;BME280;42236;48.058;10.632;2023-04-19T10:45:49;94846.88;;;10.84;85.22
56330;BME280;42236;48.058;10.632;2023-04-19T10:48:37;94840.25;;;11.06;85.37
56330;BME280;42236;48.058;10.632;2023-04-19T10:54:27;94827.66;;;10.74;85.50
56330;BME280;42236;48.058;10.632;2023-04-19T10:57:15;94832.38;;;10.77;85.80
56330;BME280;42236;48.058;10.632;2023-04-19T11:00:20;94817.75;;;11.02;83.81
56330;BME280;42236;48.058;10.632;2023-04-19T11:06:34;94819.84;;;11.74;82.86
56330;BME280;42236;48.058;10.632;2023-04-19T11:09:24;94807.03;;;12.27;82.57
56330;BME280;42236;48.058;10.632;2023-04-19T11:14:58;94800.28;;;12.81;80.82
56330;BME280;42236;48.058;10.632;2023-04-19T11:17:50;94795.03;;;12.72;78.98
56330;BME280;42236;48.058;10.632;2023-04-19T11:20:37;94791.72;;;12.63;79.84
56330;BME280;42236;48.058;10.632;2023-04-19T11:23:23;94793.88;;;12.26;79.82
56330;BME280;42236;48.058;10.632;2023-04-19T11:26:11;94792.97;;;12.06;78.55
56330;BME280;42236;48.058;10.632;2023-04-19T11:28:57;94782.44;;;11.88;81.11
56330;BME280;42236;48.058;10.632;2023-04-19T11:31:44;94781.59;;;11.72;81.11
56330;BME280;42236;48.058;10.632;2023-04-19T11:34:40;94785.88;;;11.32;80.65
56330;BME280;42236;48.058;10.632;2023-04-19T11:37:31;94781.06;;;11.14;81.53
56330;BME280;42236;48.058;10.632;2023-04-19T11:40:19;94777.06;;;10.83;80.96
56330;BME280;42236;48.058;10.632;2023-04-19T11:43:05;94765.03;;;10.68;81.92
56330;BME280;42236;48.058;10.632;2023-04-19T11:45:50;94770.75;;;10.54;82.42
56330;BME280;42236;48.058;10.632;2023-04-19T11:48:37;94767.38;;;10.45;82.22
56330;BME280;42236;48.058;10.632;2023-04-19T11:51:32;94762.91;;;10.49;82.33
56330;BME280;42236;48.058;10.632;2023-04-19T11:54:18;94760.88;;;10.58;82.60
56330;BME280;42236;48.058;10.632;2023-04-19T11:57:05;94761.88;;;10.66;81.93
56330;BME280;42236;48.058;10.632;2023-04-19T12:00:08;94746.81;;;10.65;81.04
56330;BME280;42236;48.058;10.632;2023-04-19T12:02:58;94753.44;;;10.67;81.59
56330;BME280;42236;48.058;10.632;2023-04-19T12:05:57;94749.63;;;10.56;79.92
56330;BME280;42236;48.058;10.632;2023-04-19T12:08:48;94757.28;;;10.66;79.54
56330;BME280;42236;48.058;10.632;2023-04-19T12:11:45;94746.03;;;10.77;79.33
56330;BME280;42236;48.058;10.632;2023-04-19T12:14:34;94745.56;;;10.87;80.44
56330;BME280;42236;48.058;10.632;2023-04-19T12:17:20;94745.13;;;10.97;80.22
56330;BME280;42236;48.058;10.632;2023-04-19T12:20:06;94742.84;;;10.87;79.75
56330;BME280;42236;48.058;10.632;2023-04-19T12:22:52;94739.38;;;10.86;79.79
56330;BME280;42236;48.058;10.632;2023-04-19T12:25:38;94736.78;;;11.02;79.94
56330;BME280;42236;48.058;10.632;2023-04-19T12:28:24;94734.53;;;11.04;79.34
56330;BME280;42236;48.058;10.632;2023-04-19T12:31:10;94734.94;;;11.06;78.68
56330;BME280;42236;48.058;10.632;2023-04-19T12:33:55;94727.19;;;11.17;78.44
56330;BME280;42236;48.058;10.632;2023-04-19T12:36:41;94733.59;;;11.13;76.46
56330;BME280;42236;48.058;10.632;2023-04-19T12:39:27;94726.84;;;11.06;77.11
56330;BME280;42236;48.058;10.632;2023-04-19T12:42:13;94730.47;;;10.98;77.07
56330;BME280;42236;48.058;10.632;2023-04-19T12:44:58;94722.06;;;11.00;77.89
56330;BME280;42236;48.058;10.632;2023-04-19T12:47:45;94716.94;;;11.10;77.29
56330;BME280;42236;48.058;10.632;2023-04-19T12:50:31;94719.00;;;11.01;76.72
56330;BME280;42236;48.058;10.632;2023-04-19T12:53:17;94720.72;;;10.81;76.84
56330;BME280;42236;48.058;10.632;2023-04-19T12:56:03;94722.22;;;10.54;76.08
56330;BME280;42236;48.058;10.632;2023-04-19T12:58:49;94719.50;;;10.30;76.00
56330;BME280;42236;48.058;10.632;2023-04-19T13:01:34;94720.84;;;10.36;77.99
56330;BME280;42236;48.058;10.632;2023-04-19T13:04:23;94712.84;;;10.27;78.50
56330;BME280;42236;48.058;10.632;2023-04-19T13:07:08;94709.56;;;10.21;78.92
56330;BME280;42236;48.058;10.632;2023-04-19T13:09:54;94713.03;;;9.97;78.64
56330;BME280;42236;48.058;10.632;2023-04-19T13:12:40;94713.59;;;10.03;79.45
56330;BME280;42236;48.058;10.632;2023-04-19T13:15:26;94708.28;;;9.82;77.21
56330;BME280;42236;48.058;10.632;2023-04-19T13:18:12;94705.91;;;9.80;78.48
56330;BME280;42236;48.058;10.632;2023-04-19T13:20:58;94707.00;;;9.67;76.89
56330;BME280;42236;48.058;10.632;2023-04-19T13:23:44;94700.09;;;9.45;76.68
56330;BME280;42236;48.058;10.632;2023-04-19T13:26:29;94698.56;;;9.23;77.03
56330;BME280;42236;48.058;10.632;2023-04-19T13:29:15;94699.81;;;9.05;76.83
56330;BME280;42236;48.058;10.632;2023-04-19T13:32:01;94704.06;;;9.06;76.94
56330;BME280;42236;48.058;10.632;2023-04-19T13:34:47;94693.59;;;9.25;78.07
56330;BME280;42236;48.058;10.632;2023-04-19T13:37:32;94701.81;;;9.29;78.23
56330;BME280;42236;48.058;10.632;2023-04-19T13:40:18;94703.38;;;9.51;78.79
56330;BME280;42236;48.058;10.632;2023-04-19T13:43:03;94694.16;;;9.52;79.08
56330;BME280;42236;48.058;10.632;2023-04-19T13:45:49;94690.41;;;9.65;79.11
56330;BME280;42236;48.058;10.632;2023-04-19T13:48:35;94693.56;;;9.79;79.30
56330;BME280;42236;48.058;10.632;2023-04-19T13:51:20;94686.84;;;9.86;79.61
56330;BME280;42236;48.058;10.632;2023-04-19T13:54:06;94696.91;;;9.64;81.06
56330;BME280;42236;48.058;10.632;2023-04-19T13:56:52;94694.00;;;9.69;81.78
56330;BME280;42236;48.058;10.632;2023-04-19T13:59:37;94684.06;;;9.49;84.19
56330;BME280;42236;48.058;10.632;2023-04-19T14:02:23;94694.47;;;9.38;84.63
56330;BME280;42236;48.058;10.632;2023-04-19T14:05:09;94684.91;;;9.28;85.31
56330;BME280;42236;48.058;10.632;2023-04-19T14:07:55;94692.97;;;9.28;86.45
56330;BME280;42236;48.058;10.632;2023-04-19T14:10:40;94686.09;;;9.18;86.20
56330;BME280;42236;48.058;10.632;2023-04-19T14:13:26;94684.50;;;9.17;86.53
56330;BME280;42236;48.058;10.632;2023-04-19T14:16:12;94681.91;;;9.09;87.35
56330;BME280;42236;48.058;10.632;2023-04-19T14:18:57;94688.31;;;8.95;87.34
56330;BME280;42236;48.058;10.632;2023-04-19T14:21:43;94693.44;;;8.88;88.26
56330;BME280;42236;48.058;10.632;2023-04-19T14:24:29;94689.47;;;8.65;89.20
56330;BME280;42236;48.058;10.632;2023-04-19T14:27:15;94682.91;;;8.53;90.52
56330;BME280;42236;48.058;10.632;2023-04-19T14:30:01;94682.78;;;8.50;90.55
56330;BME280;42236;48.058;10.632;2023-04-19T14:32:46;94688.38;;;8.36;90.65
56330;BME280;42236;48.058;10.632;2023-04-19T14:35:32;94683.53;;;8.21;90.65
56330;BME280;42236;48.058;10.632;2023-04-19T14:38:18;94681.88;;;8.07;91.06
56330;BME280;42236;48.058;10.632;2023-04-19T14:41:03;94690.59;;;7.96;91.98
56330;BME280;42236;48.058;10.632;2023-04-19T14:43:49;94684.00;;;7.84;93.06
56330;BME280;42236;48.058;10.632;2023-04-19T14:46:35;94689.25;;;7.81;94.15